sensor_id;sensor_type;location;lat;lon;timestamp;pressure;altitude;pressure_sealevel;temperature;humidity
12213;BME280;6169;44.158;22.788;2024-02-21T00:02:12;101837.88;;;6.48;56.71
12213;BME280;6169;44.158;22.788;2024-02-21T00:07:14;101829.84;;;6.40;56.89
12213;BME280;6169;44.158;22.788;2024-02-21T00:12:18;101822.66;;;6.47;57.47
12213;BME280;6169;44.158;22.788;2024-02-21T00:17:20;101827.69;;;6.65;56.89
12213;BME280;6169;44.158;22.788;2024-02-21T00:22:22;101824.44;;;6.91;55.22
12213;BME280;6169;44.158;22.788;2024-02-21T00:27:25;101815.63;;;6.67;55.26
12213;BME280;6169;44.158;22.788;2024-02-21T00:32:27;101814.53;;;6.47;56.57
12213;BME280;6169;44.158;22.788;2024-02-21T00:37:31;101814.28;;;6.42;56.79
12213;BME280;6169;44.158;22.788;2024-02-21T00:42:35;101809.72;;;6.13;57.41
12213;BME280;6169;44.158;22.788;2024-02-21T00:47:37;101805.81;;;6.15;57.69
12213;BME280;6169;44.158;22.788;2024-02-21T00:52:39;101806.91;;;6.36;57.23
12213;BME280;6169;44.158;22.788;2024-02-21T00:57:42;101806.91;;;6.50;56.13
12213;BME280;6169;44.158;22.788;2024-02-21T01:02:44;101802.31;;;6.51;56.47
12213;BME280;6169;44.158;22.788;2024-02-21T01:07:46;101788.94;;;6.64;55.36
12213;BME280;6169;44.158;22.788;2024-02-21T01:12:50;101792.00;;;6.10;56.56
12213;BME280;6169;44.158;22.788;2024-02-21T01:17:52;101786.75;;;5.94;57.85
12213;BME280;6169;44.158;22.788;2024-02-21T01:22:55;101785.84;;;6.01;57.09
12213;BME280;6169;44.158;22.788;2024-02-21T01:27:58;101784.69;;;5.66;57.84
12213;BME280;6169;44.158;22.788;2024-02-21T01:33:00;101772.09;;;5.58;57.57
12213;BME280;6169;44.158;22.788;2024-02-21T01:38:03;101776.22;;;5.31;59.34
12213;BME280;6169;44.158;22.788;2024-02-21T01:43:15;101768.09;;;5.16;59.08
12213;BME280;6169;44.158;22.788;2024-02-21T01:48:18;101780.19;;;5.20;60.19
12213;BME280;6169;44.158;22.788;2024-02-21T01:53:23;101774.50;;;5.15;59.99
12213;BME280;6169;44.158;22.788;2024-02-21T01:58:28;101770.38;;;5.42;59.23
12213;BME280;6169;44.158;22.788;2024-02-21T02:03:31;101758.91;;;6.08;56.01
12213;BME280;6169;44.158;22.788;2024-02-21T02:08:33;101767.50;;;5.97;55.76
12213;BME280;6169;44.158;22.788;2024-02-21T02:13:36;101761.75;;;5.62;56.99
12213;BME280;6169;44.158;22.788;2024-02-21T02:18:38;101753.41;;;5.34;56.75
12213;BME280;6169;44.158;22.788;2024-02-21T02:23:42;101756.81;;;5.13;57.32
12213;BME280;6169;44.158;22.788;2024-02-21T02:28:44;101754.72;;;4.77;57.48
12213;BME280;6169;44.158;22.788;2024-02-21T02:33:46;101748.78;;;5.05;57.28
12213;BME280;6169;44.158;22.788;2024-02-21T02:38:50;101758.59;;;4.74;57.37
12213;BME280;6169;44.158;22.788;2024-02-21T02:43:52;101755.91;;;4.74;58.59
12213;BME280;6169;44.158;22.788;2024-02-21T02:48:54;101765.06;;;4.42;59.01
12213;BME280;6169;44.158;22.788;2024-02-21T02:53:58;101758.16;;;4.40;59.50
12213;BME280;6169;44.158;22.788;2024-02-21T02:59:00;101764.03;;;4.43;59.19
12213;BME280;6169;44.158;22.788;2024-02-21T03:04:02;101764.47;;;4.78;58.79
12213;BME280;6169;44.158;22.788;2024-02-21T03:09:05;101763.25;;;4.58;57.40
12213;BME280;6169;44.158;22.788;2024-02-21T03:14:09;101765.88;;;4.74;57.68
12213;BME280;6169;44.158;22.788;2024-02-21T03:19:11;101766.63;;;4.60;56.42
12213;BME280;6169;44.158;22.788;2024-02-21T03:24:14;101770.16;;;4.29;57.45
12213;BME280;6169;44.158;22.788;2024-02-21T03:29:16;101766.00;;;4.49;56.43
12213;BME280;6169;44.158;22.788;2024-02-21T03:34:18;101771.50;;;4.25;59.50
12213;BME280;6169;44.158;22.788;2024-02-21T03:39:22;101768.78;;;4.64;58.53
12213;BME280;6169;44.158;22.788;2024-02-21T03:44:24;101774.03;;;4.89;58.30
12213;BME280;6169;44.158;22.788;2024-02-21T03:49:26;101773.28;;;4.72;57.71
12213;BME280;6169;44.158;22.788;2024-02-21T03:54:29;101774.44;;;4.77;58.05
12213;BME280;6169;44.158;22.788;2024-02-21T03:59:31;101773.34;;;4.87;57.87
12213;BME280;6169;44.158;22.788;2024-02-21T04:04:34;101771.78;;;4.69;59.85
12213;BME280;6169;44.158;22.788;2024-02-21T04:09:38;101777.50;;;4.74;58.80
12213;BME280;6169;44.158;22.788;2024-02-21T04:14:40;101771.50;;;5.10;57.56
12213;BME280;6169;44.158;22.788;2024-02-21T04:19:42;101767.53;;;4.98;57.63
12213;BME280;6169;44.158;22.788;2024-02-21T04:24:46;101775.72;;;5.13;57.15
12213;BME280;6169;44.158;22.788;2024-02-21T04:29:48;101774.22;;;5.10;57.05
12213;BME280;6169;44.158;22.788;2024-02-21T04:34:50;101771.69;;;5.09;57.68
12213;BME280;6169;44.158;22.788;2024-02-21T04:39:53;101777.81;;;5.03;58.21
12213;BME280;6169;44.158;22.788;2024-02-21T04:44:55;101782.00;;;5.05;58.19
12213;BME280;6169;44.158;22.788;2024-02-21T04:49:57;101781.84;;;5.07;57.68
12213;BME280;6169;44.158;22.788;2024-02-21T04:55:01;101780.63;;;4.86;58.22
12213;BME280;6169;44.158;22.788;2024-02-21T05:00:04;101785.38;;;4.84;59.26
12213;BME280;6169;44.158;22.788;2024-02-21T05:05:07;101795.34;;;4.75;59.36
12213;BME280;6169;44.158;22.788;2024-02-21T05:10:10;101786.00;;;4.86;59.39
12213;BME280;6169;44.158;22.788;2024-02-21T05:15:12;101780.91;;;5.14;59.57
12213;BME280;6169;44.158;22.788;2024-02-21T05:20:15;101788.84;;;4.93;60.32
12213;BME280;6169;44.158;22.788;2024-02-21T05:25:18;101794.63;;;5.13;60.53
12213;BME280;6169;44.158;22.788;2024-02-21T05:30:20;101790.97;;;5.43;59.65
12213;BME280;6169;44.158;22.788;2024-02-21T05:35:25;101792.56;;;5.38;59.24
12213;BME280;6169;44.158;22.788;2024-02-21T05:40:29;101805.00;;;5.24;59.20
12213;BME280;6169;44.158;22.788;2024-02-21T05:45:31;101803.03;;;4.87;58.61
12213;BME280;6169;44.158;22.788;2024-02-21T05:50:33;101803.25;;;4.54;59.00
12213;BME280;6169;44.158;22.788;2024-02-21T05:55:37;101818.81;;;4.36;59.00
12213;BME280;6169;44.158;22.788;2024-02-21T06:00:39;101812.59;;;4.35;59.86
12213;BME280;6169;44.158;22.788;2024-02-21T06:05:41;101812.25;;;4.38;61.31
12213;BME280;6169;44.158;22.788;2024-02-21T06:10:45;101813.41;;;4.44;60.62
12213;BME280;6169;44.158;22.788;2024-02-21T06:15:47;101814.97;;;4.92;60.73
12213;BME280;6169;44.158;22.788;2024-02-21T06:20:50;101823.16;;;5.30;59.76
12213;BME280;6169;44.158;22.788;2024-02-21T06:25:54;101827.31;;;5.18;61.04
12213;BME280;6169;44.158;22.788;2024-02-21T06:30:56;101823.44;;;5.73;59.76
12213;BME280;6169;44.158;22.788;2024-02-21T06:35:58;101831.81;;;6.01;59.78
12213;BME280;6169;44.158;22.788;2024-02-21T06:41:02;101832.44;;;6.63;58.27
12213;BME280;6169;44.158;22.788;2024-02-21T06:46:05;101842.31;;;6.55;58.39
12213;BME280;6169;44.158;22.788;2024-02-21T06:51:06;101851.06;;;6.87;58.11
12213;BME280;6169;44.158;22.788;2024-02-21T06:56:10;101851.72;;;7.11;57.56
12213;BME280;6169;44.158;22.788;2024-02-21T07:01:12;101843.50;;;7.40;56.35
12213;BME280;6169;44.158;22.788;2024-02-21T07:06:14;101849.78;;;7.97;55.65
12213;BME280;6169;44.158;22.788;2024-02-21T07:11:18;101853.22;;;8.47;55.40
12213;BME280;6169;44.158;22.788;2024-02-21T07:16:20;101854.34;;;8.60;55.61
12213;BME280;6169;44.158;22.788;2024-02-21T07:21:22;101853.69;;;8.57;55.39
12213;BME280;6169;44.158;22.788;2024-02-21T07:26:26;101852.06;;;8.63;55.28
12213;BME280;6169;44.158;22.788;2024-02-21T07:31:28;101849.16;;;8.65;55.99
12213;BME280;6169;44.158;22.788;2024-02-21T07:36:30;101853.16;;;8.75;55.74
12213;BME280;6169;44.158;22.788;2024-02-21T07:41:33;101859.75;;;8.53;56.62
12213;BME280;6169;44.158;22.788;2024-02-21T07:46:35;101856.81;;;9.16;55.21
12213;BME280;6169;44.158;22.788;2024-02-21T07:51:37;101848.91;;;9.28;55.17
12213;BME280;6169;44.158;22.788;2024-02-21T07:56:41;101844.75;;;9.32;54.30
12213;BME280;6169;44.158;22.788;2024-02-21T08:01:43;101847.84;;;9.15;55.19
12213;BME280;6169;44.158;22.788;2024-02-21T08:06:46;101847.84;;;9.15;55.60
12213;BME280;6169;44.158;22.788;2024-02-21T08:11:55;101846.00;;;9.56;55.01
12213;BME280;6169;44.158;22.788;2024-02-21T08:16:57;101838.69;;;9.76;54.90
12213;BME280;6169;44.158;22.788;2024-02-21T08:22:00;101845.16;;;9.55;54.04
12213;BME280;6169;44.158;22.788;2024-02-21T08:27:04;101835.78;;;9.71;54.71
12213;BME280;6169;44.158;22.788;2024-02-21T08:32:06;101834.72;;;10.57;52.03
12213;BME280;6169;44.158;22.788;2024-02-21T08:37:08;101845.78;;;10.75;50.95
12213;BME280;6169;44.158;22.788;2024-02-21T08:42:12;101832.22;;;10.55;51.01
12213;BME280;6169;44.158;22.788;2024-02-21T08:47:14;101833.78;;;10.90;51.22
12213;BME280;6169;44.158;22.788;2024-02-21T08:52:16;101833.53;;;10.98;49.66
12213;BME280;6169;44.158;22.788;2024-02-21T08:57:20;101835.44;;;11.79;48.84
12213;BME280;6169;44.158;22.788;2024-02-21T09:02:22;101814.09;;;11.44;49.27
12213;BME280;6169;44.158;22.788;2024-02-21T09:07:24;101824.94;;;12.38;46.80
12213;BME280;6169;44.158;22.788;2024-02-21T09:12:28;101809.25;;;12.33;46.22
12213;BME280;6169;44.158;22.788;2024-02-21T09:17:30;101813.78;;;12.21;46.07
12213;BME280;6169;44.158;22.788;2024-02-21T09:22:32;101814.88;;;12.69;44.73
12213;BME280;6169;44.158;22.788;2024-02-21T09:27:37;101824.94;;;12.01;44.29
12213;BME280;6169;44.158;22.788;2024-02-21T09:32:39;101823.13;;;12.32;44.64
12213;BME280;6169;44.158;22.788;2024-02-21T09:37:42;101834.66;;;12.34;45.20
12213;BME280;6169;44.158;22.788;2024-02-21T09:42:46;101844.78;;;11.90;45.31
12213;BME280;6169;44.158;22.788;2024-02-21T09:48:00;101844.75;;;12.33;43.52
12213;BME280;6169;44.158;22.788;2024-02-21T09:53:06;101794.16;;;12.12;44.99
12213;BME280;6169;44.158;22.788;2024-02-21T09:58:10;101835.63;;;12.21;44.26
12213;BME280;6169;44.158;22.788;2024-02-21T10:03:13;101839.06;;;12.17;43.81
12213;BME280;6169;44.158;22.788;2024-02-21T10:08:15;101824.63;;;12.65;43.58
12213;BME280;6169;44.158;22.788;2024-02-21T10:13:26;101822.47;;;12.67;43.28
12213;BME280;6169;44.158;22.788;2024-02-21T10:18:29;101825.56;;;13.19;41.87
12213;BME280;6169;44.158;22.788;2024-02-21T10:23:43;101812.25;;;12.44;42.39
12213;BME280;6169;44.158;22.788;2024-02-21T10:28:47;101813.56;;;12.23;43.04
12213;BME280;6169;44.158;22.788;2024-02-21T10:33:56;101801.16;;;13.06;42.02
12213;BME280;6169;44.158;22.788;2024-02-21T10:38:58;101788.75;;;12.91;41.94
12213;BME280;6169;44.158;22.788;2024-02-21T10:44:04;101783.72;;;12.76;42.06
12213;BME280;6169;44.158;22.788;2024-02-21T10:49:10;101779.03;;;12.47;41.84
12213;BME280;6169;44.158;22.788;2024-02-21T10:54:39;101783.31;;;12.73;40.38
12213;BME280;6169;44.158;22.788;2024-02-21T10:59:48;101758.53;;;12.86;40.62
12213;BME280;6169;44.158;22.788;2024-02-21T11:04:50;101766.84;;;12.79;40.13
12213;BME280;6169;44.158;22.788;2024-02-21T11:09:54;101758.59;;;12.49;40.40
12213;BME280;6169;44.158;22.788;2024-02-21T11:15:05;101756.38;;;12.28;41.18
12213;BME280;6169;44.158;22.788;2024-02-21T11:20:11;101752.34;;;12.60;39.93
12213;BME280;6169;44.158;22.788;2024-02-21T11:25:21;101755.16;;;12.42;40.29
12213;BME280;6169;44.158;22.788;2024-02-21T11:30:27;101748.41;;;12.75;40.47
12213;BME280;6169;44.158;22.788;2024-02-21T11:35:32;101739.72;;;12.78;39.20
12213;BME280;6169;44.158;22.788;2024-02-21T11:40:34;101731.44;;;12.85;39.83
12213;BME280;6169;44.158;22.788;2024-02-21T11:45:38;101727.63;;;12.74;40.38
12213;BME280;6169;44.158;22.788;2024-02-21T11:50:40;101717.91;;;12.90;40.06
12213;BME280;6169;44.158;22.788;2024-02-21T11:55:42;101719.41;;;12.74;38.37
12213;BME280;6169;44.158;22.788;2024-02-21T12:00:46;101714.31;;;12.47;37.71
12213;BME280;6169;44.158;22.788;2024-02-21T12:05:48;101709.53;;;12.43;37.30
12213;BME280;6169;44.158;22.788;2024-02-21T12:10:50;101711.34;;;12.49;38.45
12213;BME280;6169;44.158;22.788;2024-02-21T12:15:53;101704.66;;;12.33;37.84
12213;BME280;6169;44.158;22.788;2024-02-21T12:20:55;101706.25;;;12.22;38.26
12213;BME280;6169;44.158;22.788;2024-02-21T12:25:59;101704.75;;;12.08;38.54
12213;BME280;6169;44.158;22.788;2024-02-21T12:31:03;101707.63;;;12.43;38.64
12213;BME280;6169;44.158;22.788;2024-02-21T12:36:05;101701.34;;;12.43;38.23
12213;BME280;6169;44.158;22.788;2024-02-21T12:41:09;101715.75;;;12.01;40.10
12213;BME280;6169;44.158;22.788;2024-02-21T12:46:12;101705.47;;;11.41;40.78
12213;BME280;6169;44.158;22.788;2024-02-21T12:51:14;101707.19;;;11.36;41.51
12213;BME280;6169;44.158;22.788;2024-02-21T12:56:21;101696.81;;;11.44;41.71
12213;BME280;6169;44.158;22.788;2024-02-21T13:01:24;101698.84;;;11.31;42.13
12213;BME280;6169;44.158;22.788;2024-02-21T13:06:27;101686.44;;;11.35;42.14
12213;BME280;6169;44.158;22.788;2024-02-21T13:11:29;101702.09;;;11.21;42.36
12213;BME280;6169;44.158;22.788;2024-02-21T13:16:33;101715.41;;;11.73;41.70
12213;BME280;6169;44.158;22.788;2024-02-21T13:21:39;101716.75;;;10.63;43.15
12213;BME280;6169;44.158;22.788;2024-02-21T13:26:41;101713.66;;;11.16;43.07
12213;BME280;6169;44.158;22.788;2024-02-21T13:31:45;101709.84;;;11.42;42.10
12213;BME280;6169;44.158;22.788;2024-02-21T13:36:47;101705.53;;;10.85;43.58
12213;BME280;6169;44.158;22.788;2024-02-21T13:41:49;101709.75;;;10.74;43.85
12213;BME280;6169;44.158;22.788;2024-02-21T13:46:52;101709.28;;;10.84;44.05
12213;BME280;6169;44.158;22.788;2024-02-21T13:51:54;101713.69;;;10.53;44.33
12213;BME280;6169;44.158;22.788;2024-02-21T13:56:56;101710.25;;;10.64;43.72
12213;BME280;6169;44.158;22.788;2024-02-21T14:02:00;101694.22;;;10.11;44.38
12213;BME280;6169;44.158;22.788;2024-02-21T14:07:02;101705.13;;;10.74;43.58
12213;BME280;6169;44.158;22.788;2024-02-21T14:12:05;101702.84;;;10.71;43.51
12213;BME280;6169;44.158;22.788;2024-02-21T14:17:09;101707.25;;;10.72;43.48
12213;BME280;6169;44.158;22.788;2024-02-21T14:22:12;101702.38;;;10.49;42.59
12213;BME280;6169;44.158;22.788;2024-02-21T14:27:14;101701.22;;;10.32;42.35
12213;BME280;6169;44.158;22.788;2024-02-21T14:32:17;101696.69;;;10.12;42.62
12213;BME280;6169;44.158;22.788;2024-02-21T14:37:20;101696.69;;;10.19;42.24
12213;BME280;6169;44.158;22.788;2024-02-21T14:42:22;101700.56;;;9.91;42.84
12213;BME280;6169;44.158;22.788;2024-02-21T14:47:27;101707.59;;;10.51;42.25
12213;BME280;6169;44.158;22.788;2024-02-21T14:52:30;101710.28;;;10.57;42.52
12213;BME280;6169;44.158;22.788;2024-02-21T14:57:33;101707.72;;;10.31;42.56
12213;BME280;6169;44.158;22.788;2024-02-21T15:02:38;101706.31;;;10.15;43.02
12213;BME280;6169;44.158;22.788;2024-02-21T15:07:40;101713.06;;;10.51;42.41
12213;BME280;6169;44.158;22.788;2024-02-21T15:12:43;101713.41;;;10.16;42.94
12213;BME280;6169;44.158;22.788;2024-02-21T15:17:46;101718.03;;;10.22;43.30
12213;BME280;6169;44.158;22.788;2024-02-21T15:22:48;101714.44;;;10.28;43.06
12213;BME280;6169;44.158;22.788;2024-02-21T15:27:50;101718.06;;;10.09;43.63
12213;BME280;6169;44.158;22.788;2024-02-21T15:32:54;101715.13;;;10.10;43.21
12213;BME280;6169;44.158;22.788;2024-02-21T15:37:59;101712.09;;;9.80;44.48
12213;BME280;6169;44.158;22.788;2024-02-21T15:43:01;101725.31;;;10.22;43.64
12213;BME280;6169;44.158;22.788;2024-02-21T15:48:05;101700.63;;;10.23;43.23
12213;BME280;6169;44.158;22.788;2024-02-21T15:53:07;101627.25;;;9.52;43.99
12213;BME280;6169;44.158;22.788;2024-02-21T15:58:11;101720.28;;;10.32;43.49
12213;BME280;6169;44.158;22.788;2024-02-21T16:03:15;101716.53;;;10.26;43.29
12213;BME280;6169;44.158;22.788;2024-02-21T16:08:17;101714.53;;;10.47;43.13
12213;BME280;6169;44.158;22.788;2024-02-21T16:13:20;101722.75;;;9.82;44.33
12213;BME280;6169;44.158;22.788;2024-02-21T16:18:23;101729.72;;;9.44;44.70
12213;BME280;6169;44.158;22.788;2024-02-21T16:23:25;101730.13;;;9.28;45.22
12213;BME280;6169;44.158;22.788;2024-02-21T16:28:27;101733.88;;;9.74;43.63
12213;BME280;6169;44.158;22.788;2024-02-21T16:33:31;101743.31;;;9.31;44.66
12213;BME280;6169;44.158;22.788;2024-02-21T16:38:35;101742.91;;;9.41;43.95
12213;BME280;6169;44.158;22.788;2024-02-21T16:43:40;101750.00;;;9.22;43.72
12213;BME280;6169;44.158;22.788;2024-02-21T16:48:43;101748.72;;;8.91;44.34
12213;BME280;6169;44.158;22.788;2024-02-21T16:53:46;101753.28;;;8.77;44.51
12213;BME280;6169;44.158;22.788;2024-02-21T16:58:48;101752.16;;;8.45;45.25
12213;BME280;6169;44.158;22.788;2024-02-21T17:03:51;101756.63;;;8.66;44.93
12213;BME280;6169;44.158;22.788;2024-02-21T17:08:53;101755.16;;;8.16;45.97
12213;BME280;6169;44.158;22.788;2024-02-21T17:13:56;101759.47;;;8.51;44.88
12213;BME280;6169;44.158;22.788;2024-02-21T17:19:01;101759.31;;;8.53;44.69
12213;BME280;6169;44.158;22.788;2024-02-21T17:24:06;101765.59;;;8.19;45.57
12213;BME280;6169;44.158;22.788;2024-02-21T17:29:08;101767.84;;;8.08;46.60
12213;BME280;6169;44.158;22.788;2024-02-21T17:34:12;101764.66;;;7.98;46.57
12213;BME280;6169;44.158;22.788;2024-02-21T17:39:14;101759.28;;;7.42;48.28
12213;BME280;6169;44.158;22.788;2024-02-21T17:44:18;101759.28;;;7.42;47.69
12213;BME280;6169;44.158;22.788;2024-02-21T17:49:23;101756.91;;;7.88;46.60
12213;BME280;6169;44.158;22.788;2024-02-21T17:54:25;101754.13;;;7.47;48.18
12213;BME280;6169;44.158;22.788;2024-02-21T17:59:27;101755.88;;;7.61;48.26
12213;BME280;6169;44.158;22.788;2024-02-21T18:04:32;101754.34;;;7.24;49.60
12213;BME280;6169;44.158;22.788;2024-02-21T18:09:34;101756.16;;;7.38;49.75
12213;BME280;6169;44.158;22.788;2024-02-21T18:14:36;101750.13;;;7.43;49.41
12213;BME280;6169;44.158;22.788;2024-02-21T18:19:40;101751.38;;;7.40;49.67
12213;BME280;6169;44.158;22.788;2024-02-21T18:24:42;101747.66;;;7.48;49.73
12213;BME280;6169;44.158;22.788;2024-02-21T18:29:44;101756.06;;;7.32;50.23
12213;BME280;6169;44.158;22.788;2024-02-21T18:34:47;101754.91;;;7.41;50.93
12213;BME280;6169;44.158;22.788;2024-02-21T18:39:50;101749.63;;;7.11;51.17
12213;BME280;6169;44.158;22.788;2024-02-21T18:44:52;101766.06;;;6.88;51.88
12213;BME280;6169;44.158;22.788;2024-02-21T18:49:56;101759.63;;;7.11;51.16
12213;BME280;6169;44.158;22.788;2024-02-21T18:54:58;101751.88;;;7.08;49.80
12213;BME280;6169;44.158;22.788;2024-02-21T19:00:00;101733.91;;;6.57;51.39
12213;BME280;6169;44.158;22.788;2024-02-21T19:05:09;101732.13;;;6.64;51.04
12213;BME280;6169;44.158;22.788;2024-02-21T19:10:11;101726.22;;;6.39;52.45
12213;BME280;6169;44.158;22.788;2024-02-21T19:15:14;101717.03;;;6.04;52.74
12213;BME280;6169;44.158;22.788;2024-02-21T19:20:17;101734.72;;;6.36;51.91
12213;BME280;6169;44.158;22.788;2024-02-21T19:25:20;101731.16;;;6.36;52.07
12213;BME280;6169;44.158;22.788;2024-02-21T19:30:23;101745.41;;;6.44;51.34
12213;BME280;6169;44.158;22.788;2024-02-21T19:35:29;101750.25;;;6.49;51.10
12213;BME280;6169;44.158;22.788;2024-02-21T19:40:31;101741.50;;;6.68;50.20
12213;BME280;6169;44.158;22.788;2024-02-21T19:45:33;101740.81;;;6.08;51.62
12213;BME280;6169;44.158;22.788;2024-02-21T19:50:37;101732.00;;;5.77;52.75
12213;BME280;6169;44.158;22.788;2024-02-21T19:55:39;101740.63;;;5.80;52.38
12213;BME280;6169;44.158;22.788;2024-02-21T20:00:41;101735.84;;;5.82;51.94
12213;BME280;6169;44.158;22.788;2024-02-21T20:05:44;101732.09;;;5.54;53.20
12213;BME280;6169;44.158;22.788;2024-02-21T20:10:46;101742.88;;;5.92;52.63
12213;BME280;6169;44.158;22.788;2024-02-21T20:15:49;101729.06;;;6.01;51.88
12213;BME280;6169;44.158;22.788;2024-02-21T20:20:52;101729.56;;;5.37;53.76
12213;BME280;6169;44.158;22.788;2024-02-21T20:25:55;101723.66;;;5.72;52.50
12213;BME280;6169;44.158;22.788;2024-02-21T20:30:57;101734.03;;;5.30;54.32
12213;BME280;6169;44.158;22.788;2024-02-21T20:36:00;101728.47;;;5.09;53.84
12213;BME280;6169;44.158;22.788;2024-02-21T20:41:02;101725.91;;;5.15;53.56
12213;BME280;6169;44.158;22.788;2024-02-21T20:46:04;101709.94;;;5.43;52.82
12213;BME280;6169;44.158;22.788;2024-02-21T20:51:08;101718.94;;;5.21;52.73
12213;BME280;6169;44.158;22.788;2024-02-21T20:56:11;101719.69;;;4.69;53.75
12213;BME280;6169;44.158;22.788;2024-02-21T21:01:13;101711.91;;;4.51;54.05
12213;BME280;6169;44.158;22.788;2024-02-21T21:06:16;101717.03;;;4.61;54.43
12213;BME280;6169;44.158;22.788;2024-02-21T21:11:19;101712.06;;;4.49;55.67
12213;BME280;6169;44.158;22.788;2024-02-21T21:16:21;101711.44;;;4.70;55.60
12213;BME280;6169;44.158;22.788;2024-02-21T21:21:25;101707.38;;;4.89;54.17
12213;BME280;6169;44.158;22.788;2024-02-21T21:26:27;101704.31;;;4.92;52.92
12213;BME280;6169;44.158;22.788;2024-02-21T21:31:29;101699.91;;;4.76;53.70
12213;BME280;6169;44.158;22.788;2024-02-21T21:36:32;101701.03;;;4.82;53.47
12213;BME280;6169;44.158;22.788;2024-02-21T21:41:34;101714.28;;;4.69;54.55
12213;BME280;6169;44.158;22.788;2024-02-21T21:46:36;101703.81;;;4.74;53.51
12213;BME280;6169;44.158;22.788;2024-02-21T21:51:42;101720.81;;;4.51;53.78
12213;BME280;6169;44.158;22.788;2024-02-21T21:56:45;101721.19;;;4.48;53.98
12213;BME280;6169;44.158;22.788;2024-02-21T22:01:47;101729.75;;;4.13;54.44
12213;BME280;6169;44.158;22.788;2024-02-21T22:06:50;101723.91;;;4.01;55.51
12213;BME280;6169;44.158;22.788;2024-02-21T22:11:52;101722.53;;;4.05;56.81
12213;BME280;6169;44.158;22.788;2024-02-21T22:16:55;101712.78;;;4.43;55.45
12213;BME280;6169;44.158;22.788;2024-02-21T22:21:58;101710.50;;;4.24;55.43
12213;BME280;6169;44.158;22.788;2024-02-21T22:27:04;101707.41;;;4.04;56.52
12213;BME280;6169;44.158;22.788;2024-02-21T22:32:06;101707.78;;;4.32;55.19
12213;BME280;6169;44.158;22.788;2024-02-21T22:37:11;101703.94;;;3.87;56.71
12213;BME280;6169;44.158;22.788;2024-02-21T22:42:13;101704.06;;;4.33;55.97
12213;BME280;6169;44.158;22.788;2024-02-21T22:47:15;101703.75;;;4.36;55.64
12213;BME280;6169;44.158;22.788;2024-02-21T22:52:19;101701.63;;;4.15;56.07
12213;BME280;6169;44.158;22.788;2024-02-21T22:57:21;101699.78;;;4.07;56.48
12213;BME280;6169;44.158;22.788;2024-02-21T23:02:24;101690.09;;;4.29;55.90
12213;BME280;6169;44.158;22.788;2024-02-21T23:07:27;101700.75;;;4.23;56.12
12213;BME280;6169;44.158;22.788;2024-02-21T23:12:29;101703.03;;;4.42;54.98
12213;BME280;6169;44.158;22.788;2024-02-21T23:17:31;101691.63;;;4.24;54.61
12213;BME280;6169;44.158;22.788;2024-02-21T23:22:35;101622.91;;;3.57;54.76
12213;BME280;6169;44.158;22.788;2024-02-21T23:27:37;101689.38;;;4.04;53.71
12213;BME280;6169;44.158;22.788;2024-02-21T23:32:39;101687.31;;;3.75;54.56
12213;BME280;6169;44.158;22.788;2024-02-21T23:37:43;101665.78;;;3.67;54.40
12213;BME280;6169;44.158;22.788;2024-02-21T23:42:45;101689.03;;;3.60;54.18
12213;BME280;6169;44.158;22.788;2024-02-21T23:47:47;101682.38;;;3.87;55.77
12213;BME280;6169;44.158;22.788;2024-02-21T23:52:50;101681.25;;;3.73;55.45
12213;BME280;6169;44.158;22.788;2024-02-21T23:57:52;101680.00;;;3.92;54.98
